sensor_id;sensor_type;location;lat;lon;timestamp;P1;durP1;ratioP1;P2;durP2;ratioP2
16117;SDS011;8163;50.118;5.342;2022-09-21T00:00:38;9.88;;;6.55;;
16117;SDS011;8163;50.118;5.342;2022-09-21T00:03:05;10.82;;;7.15;;
16117;SDS011;8163;50.118;5.342;2022-09-21T00:05:32;8.93;;;8.02;;
16117;SDS011;8163;50.118;5.342;2022-09-21T00:07:59;13.63;;;7.70;;
16117;SDS011;8163;50.118;5.342;2022-09-21T00:10:27;13.50;;;8.35;;
16117;SDS011;8163;50.118;5.342;2022-09-21T00:12:56;12.18;;;7.43;;
16117;SDS011;8163;50.118;5.342;2022-09-21T00:15:26;10.52;;;7.72;;
16117;SDS011;8163;50.118;5.342;2022-09-21T00:17:57;11.57;;;6.72;;
16117;SDS011;8163;50.118;5.342;2022-09-21T00:20:25;14.25;;;7.90;;
16117;SDS011;8163;50.118;5.342;2022-09-21T00:22:53;12.23;;;8.68;;
16117;SDS011;8163;50.118;5.342;2022-09-21T00:25:20;13.50;;;8.45;;
16117;SDS011;8163;50.118;5.342;2022-09-21T00:27:47;15.18;;;8.65;;
16117;SDS011;8163;50.118;5.342;2022-09-21T00:30:16;21.73;;;10.07;;
16117;SDS011;8163;50.118;5.342;2022-09-21T00:32:44;15.63;;;9.60;;
16117;SDS011;8163;50.118;5.342;2022-09-21T00:35:11;15.82;;;9.00;;
16117;SDS011;8163;50.118;5.342;2022-09-21T00:37:38;15.38;;;9.43;;
16117;SDS011;8163;50.118;5.342;2022-09-21T00:40:07;15.95;;;10.70;;
16117;SDS011;8163;50.118;5.342;2022-09-21T00:42:34;15.45;;;10.57;;
16117;SDS011;8163;50.118;5.342;2022-09-21T00:45:01;17.05;;;11.77;;
16117;SDS011;8163;50.118;5.342;2022-09-21T00:47:31;14.30;;;10.57;;
16117;SDS011;8163;50.118;5.342;2022-09-21T00:50:02;14.90;;;9.13;;
16117;SDS011;8163;50.118;5.342;2022-09-21T00:52:33;9.88;;;7.05;;
16117;SDS011;8163;50.118;5.342;2022-09-21T00:55:04;8.82;;;5.82;;
16117;SDS011;8163;50.118;5.342;2022-09-21T00:57:36;12.75;;;6.47;;
16117;SDS011;8163;50.118;5.342;2022-09-21T01:00:06;11.55;;;7.45;;
16117;SDS011;8163;50.118;5.342;2022-09-21T01:02:42;9.73;;;5.50;;
16117;SDS011;8163;50.118;5.342;2022-09-21T01:05:13;9.57;;;7.35;;
16117;SDS011;8163;50.118;5.342;2022-09-21T01:07:41;14.23;;;8.57;;
16117;SDS011;8163;50.118;5.342;2022-09-21T01:10:12;9.48;;;6.75;;
16117;SDS011;8163;50.118;5.342;2022-09-21T01:12:58;11.15;;;8.38;;
16117;SDS011;8163;50.118;5.342;2022-09-21T01:15:34;17.98;;;10.32;;
16117;SDS011;8163;50.118;5.342;2022-09-21T01:18:11;18.90;;;10.10;;
16117;SDS011;8163;50.118;5.342;2022-09-21T01:24:00;17.48;;;11.02;;
16117;SDS011;8163;50.118;5.342;2022-09-21T01:29:52;16.05;;;11.50;;
16117;SDS011;8163;50.118;5.342;2022-09-21T01:32:24;20.67;;;9.52;;
16117;SDS011;8163;50.118;5.342;2022-09-21T01:34:56;16.20;;;10.15;;
16117;SDS011;8163;50.118;5.342;2022-09-21T01:37:28;13.00;;;8.30;;
16117;SDS011;8163;50.118;5.342;2022-09-21T01:40:01;11.98;;;8.38;;
16117;SDS011;8163;50.118;5.342;2022-09-21T01:42:38;10.52;;;8.52;;
16117;SDS011;8163;50.118;5.342;2022-09-21T01:45:09;12.10;;;8.20;;
16117;SDS011;8163;50.118;5.342;2022-09-21T01:47:42;12.98;;;9.07;;
16117;SDS011;8163;50.118;5.342;2022-09-21T01:50:13;16.60;;;11.15;;
16117;SDS011;8163;50.118;5.342;2022-09-21T01:52:43;17.80;;;13.63;;
16117;SDS011;8163;50.118;5.342;2022-09-21T01:55:15;14.05;;;11.63;;
16117;SDS011;8163;50.118;5.342;2022-09-21T01:57:48;18.42;;;12.80;;
16117;SDS011;8163;50.118;5.342;2022-09-21T02:00:22;18.80;;;12.73;;
16117;SDS011;8163;50.118;5.342;2022-09-21T02:02:51;13.98;;;10.90;;
16117;SDS011;8163;50.118;5.342;2022-09-21T02:05:22;19.63;;;11.73;;
16117;SDS011;8163;50.118;5.342;2022-09-21T02:07:51;15.30;;;11.65;;
16117;SDS011;8163;50.118;5.342;2022-09-21T02:10:19;15.20;;;10.77;;
16117;SDS011;8163;50.118;5.342;2022-09-21T02:12:52;15.63;;;11.00;;
16117;SDS011;8163;50.118;5.342;2022-09-21T02:15:27;14.50;;;10.52;;
16117;SDS011;8163;50.118;5.342;2022-09-21T02:18:03;18.38;;;11.75;;
16117;SDS011;8163;50.118;5.342;2022-09-21T02:20:35;24.77;;;11.68;;
16117;SDS011;8163;50.118;5.342;2022-09-21T02:23:11;20.02;;;11.65;;
16117;SDS011;8163;50.118;5.342;2022-09-21T02:25:48;16.30;;;11.23;;
16117;SDS011;8163;50.118;5.342;2022-09-21T02:28:25;14.75;;;10.93;;
16117;SDS011;8163;50.118;5.342;2022-09-21T02:31:05;15.85;;;10.38;;
16117;SDS011;8163;50.118;5.342;2022-09-21T02:33:40;17.67;;;10.68;;
16117;SDS011;8163;50.118;5.342;2022-09-21T02:36:14;17.77;;;10.93;;
16117;SDS011;8163;50.118;5.342;2022-09-21T02:38:48;18.95;;;9.45;;
16117;SDS011;8163;50.118;5.342;2022-09-21T02:41:18;13.48;;;9.77;;
16117;SDS011;8163;50.118;5.342;2022-09-21T02:43:54;14.73;;;10.18;;
16117;SDS011;8163;50.118;5.342;2022-09-21T02:46:27;13.10;;;8.63;;
16117;SDS011;8163;50.118;5.342;2022-09-21T02:48:59;17.35;;;8.38;;
16117;SDS011;8163;50.118;5.342;2022-09-21T02:51:31;12.43;;;8.05;;
16117;SDS011;8163;50.118;5.342;2022-09-21T02:54:03;11.00;;;6.63;;
16117;SDS011;8163;50.118;5.342;2022-09-21T02:56:31;11.48;;;8.00;;
16117;SDS011;8163;50.118;5.342;2022-09-21T02:59:00;12.32;;;9.52;;
16117;SDS011;8163;50.118;5.342;2022-09-21T03:01:31;10.23;;;7.15;;
16117;SDS011;8163;50.118;5.342;2022-09-21T03:03:59;10.48;;;8.00;;
16117;SDS011;8163;50.118;5.342;2022-09-21T03:06:26;10.13;;;7.43;;
16117;SDS011;8163;50.118;5.342;2022-09-21T03:08:55;10.18;;;7.65;;
16117;SDS011;8163;50.118;5.342;2022-09-21T03:11:23;9.63;;;7.13;;
16117;SDS011;8163;50.118;5.342;2022-09-21T03:13:50;13.35;;;7.13;;
16117;SDS011;8163;50.118;5.342;2022-09-21T03:16:17;13.15;;;8.13;;
16117;SDS011;8163;50.118;5.342;2022-09-21T03:18:45;13.48;;;8.27;;
16117;SDS011;8163;50.118;5.342;2022-09-21T03:21:12;19.25;;;8.88;;
16117;SDS011;8163;50.118;5.342;2022-09-21T03:23:39;13.90;;;7.88;;
16117;SDS011;8163;50.118;5.342;2022-09-21T03:26:06;13.50;;;9.43;;
16117;SDS011;8163;50.118;5.342;2022-09-21T03:28:33;17.38;;;8.73;;
16117;SDS011;8163;50.118;5.342;2022-09-21T03:31:00;14.98;;;8.90;;
16117;SDS011;8163;50.118;5.342;2022-09-21T03:33:27;14.10;;;8.90;;
16117;SDS011;8163;50.118;5.342;2022-09-21T03:35:55;13.70;;;8.68;;
16117;SDS011;8163;50.118;5.342;2022-09-21T03:38:23;13.90;;;9.45;;
16117;SDS011;8163;50.118;5.342;2022-09-21T03:40:51;14.80;;;8.13;;
16117;SDS011;8163;50.118;5.342;2022-09-21T03:43:18;13.43;;;8.70;;
16117;SDS011;8163;50.118;5.342;2022-09-21T03:45:46;10.75;;;8.55;;
16117;SDS011;8163;50.118;5.342;2022-09-21T03:48:13;13.82;;;8.43;;
16117;SDS011;8163;50.118;5.342;2022-09-21T03:50:40;15.13;;;8.38;;
16117;SDS011;8163;50.118;5.342;2022-09-21T03:53:09;12.27;;;8.73;;
16117;SDS011;8163;50.118;5.342;2022-09-21T03:55:36;10.02;;;7.80;;
16117;SDS011;8163;50.118;5.342;2022-09-21T03:58:03;9.52;;;7.10;;
16117;SDS011;8163;50.118;5.342;2022-09-21T04:00:30;14.13;;;7.18;;
16117;SDS011;8163;50.118;5.342;2022-09-21T04:02:57;11.43;;;7.75;;
16117;SDS011;8163;50.118;5.342;2022-09-21T04:05:27;12.38;;;7.82;;
16117;SDS011;8163;50.118;5.342;2022-09-21T04:07:54;11.40;;;7.15;;
16117;SDS011;8163;50.118;5.342;2022-09-21T04:10:23;11.27;;;7.90;;
16117;SDS011;8163;50.118;5.342;2022-09-21T04:12:57;11.65;;;7.80;;
16117;SDS011;8163;50.118;5.342;2022-09-21T04:15:26;11.98;;;7.45;;
16117;SDS011;8163;50.118;5.342;2022-09-21T04:17:53;11.07;;;7.28;;
16117;SDS011;8163;50.118;5.342;2022-09-21T04:20:20;9.93;;;7.10;;
16117;SDS011;8163;50.118;5.342;2022-09-21T04:22:49;12.50;;;7.07;;
16117;SDS011;8163;50.118;5.342;2022-09-21T04:25:16;9.60;;;8.27;;
16117;SDS011;8163;50.118;5.342;2022-09-21T04:27:50;15.02;;;7.40;;
16117;SDS011;8163;50.118;5.342;2022-09-21T04:30:17;11.65;;;7.85;;
16117;SDS011;8163;50.118;5.342;2022-09-21T04:32:44;10.63;;;8.02;;
16117;SDS011;8163;50.118;5.342;2022-09-21T04:35:11;13.32;;;8.98;;
16117;SDS011;8163;50.118;5.342;2022-09-21T04:37:38;9.65;;;7.57;;
16117;SDS011;8163;50.118;5.342;2022-09-21T04:40:06;14.98;;;8.88;;
16117;SDS011;8163;50.118;5.342;2022-09-21T04:42:34;12.88;;;8.40;;
16117;SDS011;8163;50.118;5.342;2022-09-21T04:45:02;13.00;;;8.60;;
16117;SDS011;8163;50.118;5.342;2022-09-21T04:47:30;19.15;;;8.70;;
16117;SDS011;8163;50.118;5.342;2022-09-21T04:49:57;9.93;;;7.72;;
16117;SDS011;8163;50.118;5.342;2022-09-21T04:52:24;12.73;;;9.32;;
16117;SDS011;8163;50.118;5.342;2022-09-21T04:54:51;13.98;;;9.05;;
16117;SDS011;8163;50.118;5.342;2022-09-21T04:57:18;9.60;;;8.52;;
16117;SDS011;8163;50.118;5.342;2022-09-21T04:59:45;10.90;;;7.65;;
16117;SDS011;8163;50.118;5.342;2022-09-21T05:02:13;17.95;;;8.07;;
16117;SDS011;8163;50.118;5.342;2022-09-21T05:04:40;11.73;;;8.55;;
16117;SDS011;8163;50.118;5.342;2022-09-21T05:07:07;14.55;;;8.70;;
16117;SDS011;8163;50.118;5.342;2022-09-21T05:09:36;12.77;;;8.20;;
16117;SDS011;8163;50.118;5.342;2022-09-21T05:12:21;15.60;;;7.70;;
16117;SDS011;8163;50.118;5.342;2022-09-21T05:14:48;11.88;;;8.13;;
16117;SDS011;8163;50.118;5.342;2022-09-21T05:17:16;14.20;;;8.07;;
16117;SDS011;8163;50.118;5.342;2022-09-21T05:19:46;10.20;;;7.60;;
16117;SDS011;8163;50.118;5.342;2022-09-21T05:22:15;12.75;;;8.20;;
16117;SDS011;8163;50.118;5.342;2022-09-21T05:24:41;14.05;;;7.95;;
16117;SDS011;8163;50.118;5.342;2022-09-21T05:27:08;15.75;;;8.98;;
16117;SDS011;8163;50.118;5.342;2022-09-21T05:29:35;11.55;;;8.30;;
16117;SDS011;8163;50.118;5.342;2022-09-21T05:32:04;12.38;;;7.43;;
16117;SDS011;8163;50.118;5.342;2022-09-21T05:34:42;8.70;;;7.10;;
16117;SDS011;8163;50.118;5.342;2022-09-21T05:37:35;12.13;;;6.80;;
16117;SDS011;8163;50.118;5.342;2022-09-21T05:40:10;13.88;;;7.55;;
16117;SDS011;8163;50.118;5.342;2022-09-21T05:42:39;14.25;;;6.60;;
16117;SDS011;8163;50.118;5.342;2022-09-21T05:45:11;10.35;;;6.63;;
16117;SDS011;8163;50.118;5.342;2022-09-21T05:47:43;12.32;;;6.75;;
16117;SDS011;8163;50.118;5.342;2022-09-21T05:50:23;8.90;;;5.53;;
16117;SDS011;8163;50.118;5.342;2022-09-21T05:53:15;7.50;;;5.43;;
16117;SDS011;8163;50.118;5.342;2022-09-21T05:55:51;7.53;;;4.55;;
16117;SDS011;8163;50.118;5.342;2022-09-21T05:58:24;4.88;;;3.65;;
16117;SDS011;8163;50.118;5.342;2022-09-21T06:01:02;5.00;;;2.80;;
16117;SDS011;8163;50.118;5.342;2022-09-21T06:03:38;7.55;;;3.53;;
16117;SDS011;8163;50.118;5.342;2022-09-21T06:06:08;2.65;;;2.45;;
16117;SDS011;8163;50.118;5.342;2022-09-21T06:08:35;5.40;;;2.78;;
16117;SDS011;8163;50.118;5.342;2022-09-21T06:11:02;4.43;;;2.78;;
16117;SDS011;8163;50.118;5.342;2022-09-21T06:13:29;3.30;;;3.00;;
16117;SDS011;8163;50.118;5.342;2022-09-21T06:15:56;3.75;;;3.08;;
16117;SDS011;8163;50.118;5.342;2022-09-21T06:18:26;3.75;;;2.45;;
16117;SDS011;8163;50.118;5.342;2022-09-21T06:20:53;3.28;;;3.03;;
16117;SDS011;8163;50.118;5.342;2022-09-21T06:23:21;5.35;;;2.53;;
16117;SDS011;8163;50.118;5.342;2022-09-21T06:25:49;7.25;;;2.67;;
16117;SDS011;8163;50.118;5.342;2022-09-21T06:28:17;3.50;;;3.13;;
16117;SDS011;8163;50.118;5.342;2022-09-21T06:30:49;5.78;;;2.72;;
16117;SDS011;8163;50.118;5.342;2022-09-21T06:33:16;5.80;;;3.60;;
16117;SDS011;8163;50.118;5.342;2022-09-21T06:35:50;3.00;;;2.50;;
16117;SDS011;8163;50.118;5.342;2022-09-21T06:38:18;2.60;;;2.40;;
16117;SDS011;8163;50.118;5.342;2022-09-21T06:40:47;3.67;;;2.40;;
16117;SDS011;8163;50.118;5.342;2022-09-21T06:43:14;3.63;;;2.50;;
16117;SDS011;8163;50.118;5.342;2022-09-21T06:45:41;3.15;;;2.40;;
16117;SDS011;8163;50.118;5.342;2022-09-21T06:48:08;3.03;;;2.13;;
16117;SDS011;8163;50.118;5.342;2022-09-21T06:50:35;3.28;;;2.13;;
16117;SDS011;8163;50.118;5.342;2022-09-21T06:53:02;3.55;;;2.45;;
16117;SDS011;8163;50.118;5.342;2022-09-21T06:55:30;2.13;;;1.98;;
16117;SDS011;8163;50.118;5.342;2022-09-21T06:58:02;5.57;;;2.10;;
16117;SDS011;8163;50.118;5.342;2022-09-21T07:00:29;4.00;;;1.90;;
16117;SDS011;8163;50.118;5.342;2022-09-21T07:02:57;4.57;;;2.08;;
16117;SDS011;8163;50.118;5.342;2022-09-21T07:05:24;2.10;;;1.90;;
16117;SDS011;8163;50.118;5.342;2022-09-21T07:07:55;3.65;;;2.08;;
16117;SDS011;8163;50.118;5.342;2022-09-21T07:10:23;2.00;;;1.67;;
16117;SDS011;8163;50.118;5.342;2022-09-21T07:12:51;2.60;;;1.77;;
16117;SDS011;8163;50.118;5.342;2022-09-21T07:15:19;3.35;;;2.92;;
16117;SDS011;8163;50.118;5.342;2022-09-21T07:17:47;5.80;;;2.20;;
16117;SDS011;8163;50.118;5.342;2022-09-21T07:20:14;4.90;;;2.47;;
16117;SDS011;8163;50.118;5.342;2022-09-21T07:22:40;2.90;;;2.47;;
16117;SDS011;8163;50.118;5.342;2022-09-21T07:25:08;3.25;;;2.20;;
16117;SDS011;8163;50.118;5.342;2022-09-21T07:27:35;2.53;;;2.17;;
16117;SDS011;8163;50.118;5.342;2022-09-21T07:30:03;2.63;;;1.98;;
16117;SDS011;8163;50.118;5.342;2022-09-21T07:32:33;1.88;;;1.77;;
16117;SDS011;8163;50.118;5.342;2022-09-21T07:35:00;3.83;;;3.03;;
16117;SDS011;8163;50.118;5.342;2022-09-21T07:37:27;3.35;;;2.70;;
16117;SDS011;8163;50.118;5.342;2022-09-21T07:39:56;3.50;;;2.60;;
16117;SDS011;8163;50.118;5.342;2022-09-21T07:42:23;3.20;;;2.75;;
16117;SDS011;8163;50.118;5.342;2022-09-21T07:44:52;2.88;;;2.53;;
16117;SDS011;8163;50.118;5.342;2022-09-21T07:47:19;5.15;;;3.40;;
16117;SDS011;8163;50.118;5.342;2022-09-21T07:49:47;6.68;;;3.58;;
16117;SDS011;8163;50.118;5.342;2022-09-21T07:52:14;6.00;;;2.58;;
16117;SDS011;8163;50.118;5.342;2022-09-21T07:54:41;4.70;;;3.88;;
16117;SDS011;8163;50.118;5.342;2022-09-21T07:57:08;5.40;;;2.97;;
16117;SDS011;8163;50.118;5.342;2022-09-21T07:59:52;4.20;;;3.10;;
16117;SDS011;8163;50.118;5.342;2022-09-21T08:02:22;5.90;;;3.10;;
16117;SDS011;8163;50.118;5.342;2022-09-21T08:04:50;5.70;;;3.10;;
16117;SDS011;8163;50.118;5.342;2022-09-21T08:07:18;3.50;;;2.75;;
16117;SDS011;8163;50.118;5.342;2022-09-21T08:09:46;2.47;;;2.25;;
16117;SDS011;8163;50.118;5.342;2022-09-21T08:12:15;4.47;;;3.53;;
16117;SDS011;8163;50.118;5.342;2022-09-21T08:14:43;4.38;;;2.40;;
16117;SDS011;8163;50.118;5.342;2022-09-21T08:17:11;7.35;;;3.00;;
16117;SDS011;8163;50.118;5.342;2022-09-21T08:19:38;4.78;;;2.53;;
16117;SDS011;8163;50.118;5.342;2022-09-21T08:22:07;4.63;;;2.70;;
16117;SDS011;8163;50.118;5.342;2022-09-21T08:24:36;4.32;;;2.80;;
16117;SDS011;8163;50.118;5.342;2022-09-21T08:27:05;3.10;;;2.25;;
16117;SDS011;8163;50.118;5.342;2022-09-21T08:29:33;3.05;;;2.20;;
16117;SDS011;8163;50.118;5.342;2022-09-21T08:32:00;3.10;;;1.92;;
16117;SDS011;8163;50.118;5.342;2022-09-21T08:34:27;2.97;;;2.10;;
16117;SDS011;8163;50.118;5.342;2022-09-21T08:36:54;5.05;;;2.40;;
16117;SDS011;8163;50.118;5.342;2022-09-21T08:39:23;4.28;;;1.98;;
16117;SDS011;8163;50.118;5.342;2022-09-21T08:41:57;3.70;;;1.73;;
16117;SDS011;8163;50.118;5.342;2022-09-21T08:44:40;4.47;;;2.22;;
16117;SDS011;8163;50.118;5.342;2022-09-21T08:47:13;4.35;;;2.30;;
16117;SDS011;8163;50.118;5.342;2022-09-21T08:49:45;2.83;;;1.83;;
16117;SDS011;8163;50.118;5.342;2022-09-21T08:52:15;2.92;;;1.77;;
16117;SDS011;8163;50.118;5.342;2022-09-21T08:54:48;3.10;;;1.70;;
16117;SDS011;8163;50.118;5.342;2022-09-21T08:57:21;4.88;;;1.40;;
16117;SDS011;8163;50.118;5.342;2022-09-21T08:59:51;2.30;;;1.30;;
16117;SDS011;8163;50.118;5.342;2022-09-21T09:05:27;2.25;;;1.60;;
16117;SDS011;8163;50.118;5.342;2022-09-21T09:08:12;3.22;;;1.58;;
16117;SDS011;8163;50.118;5.342;2022-09-21T09:10:52;3.85;;;2.00;;
16117;SDS011;8163;50.118;5.342;2022-09-21T09:13:32;2.30;;;1.50;;
16117;SDS011;8163;50.118;5.342;2022-09-21T09:16:10;2.22;;;1.45;;
16117;SDS011;8163;50.118;5.342;2022-09-21T09:18:47;4.85;;;1.55;;
16117;SDS011;8163;50.118;5.342;2022-09-21T09:21:18;2.38;;;1.48;;
16117;SDS011;8163;50.118;5.342;2022-09-21T09:23:50;2.60;;;1.50;;
16117;SDS011;8163;50.118;5.342;2022-09-21T09:26:26;2.50;;;1.20;;
16117;SDS011;8163;50.118;5.342;2022-09-21T09:28:59;1.63;;;1.25;;
16117;SDS011;8163;50.118;5.342;2022-09-21T09:31:30;2.20;;;1.52;;
16117;SDS011;8163;50.118;5.342;2022-09-21T09:33:59;3.78;;;1.27;;
16117;SDS011;8163;50.118;5.342;2022-09-21T09:36:35;2.10;;;1.20;;
16117;SDS011;8163;50.118;5.342;2022-09-21T09:39:04;3.92;;;1.40;;
16117;SDS011;8163;50.118;5.342;2022-09-21T09:41:52;3.60;;;1.40;;
16117;SDS011;8163;50.118;5.342;2022-09-21T09:44:46;1.35;;;1.25;;
16117;SDS011;8163;50.118;5.342;2022-09-21T09:50:12;2.22;;;1.52;;
16117;SDS011;8163;50.118;5.342;2022-09-21T09:52:45;3.67;;;1.45;;
16117;SDS011;8163;50.118;5.342;2022-09-21T09:55:15;3.50;;;1.45;;
16117;SDS011;8163;50.118;5.342;2022-09-21T09:57:47;1.92;;;1.30;;
16117;SDS011;8163;50.118;5.342;2022-09-21T10:00:15;2.28;;;1.00;;
16117;SDS011;8163;50.118;5.342;2022-09-21T10:02:45;1.58;;;1.10;;
16117;SDS011;8163;50.118;5.342;2022-09-21T10:05:22;3.75;;;1.15;;
16117;SDS011;8163;50.118;5.342;2022-09-21T10:07:56;2.58;;;1.40;;
16117;SDS011;8163;50.118;5.342;2022-09-21T10:10:30;2.55;;;1.25;;
16117;SDS011;8163;50.118;5.342;2022-09-21T10:13:05;2.38;;;1.10;;
16117;SDS011;8163;50.118;5.342;2022-09-21T10:15:39;1.65;;;1.15;;
16117;SDS011;8163;50.118;5.342;2022-09-21T10:18:19;2.53;;;1.20;;
16117;SDS011;8163;50.118;5.342;2022-09-21T10:20:52;2.70;;;1.17;;
16117;SDS011;8163;50.118;5.342;2022-09-21T10:23:20;2.38;;;1.27;;
16117;SDS011;8163;50.118;5.342;2022-09-21T10:28:36;2.22;;;1.40;;
16117;SDS011;8163;50.118;5.342;2022-09-21T10:31:21;2.03;;;1.33;;
16117;SDS011;8163;50.118;5.342;2022-09-21T10:33:50;1.30;;;1.00;;
16117;SDS011;8163;50.118;5.342;2022-09-21T10:36:25;2.42;;;1.20;;
16117;SDS011;8163;50.118;5.342;2022-09-21T10:39:09;1.83;;;1.23;;
16117;SDS011;8163;50.118;5.342;2022-09-21T10:41:48;1.80;;;1.15;;
16117;SDS011;8163;50.118;5.342;2022-09-21T10:44:25;3.03;;;1.42;;
16117;SDS011;8163;50.118;5.342;2022-09-21T10:46:55;1.42;;;1.25;;
16117;SDS011;8163;50.118;5.342;2022-09-21T10:49:27;3.10;;;1.25;;
16117;SDS011;8163;50.118;5.342;2022-09-21T10:51:56;1.77;;;1.13;;
16117;SDS011;8163;50.118;5.342;2022-09-21T10:54:25;1.98;;;1.55;;
16117;SDS011;8163;50.118;5.342;2022-09-21T10:56:56;2.17;;;1.20;;
16117;SDS011;8163;50.118;5.342;2022-09-21T10:59:28;1.88;;;1.30;;
16117;SDS011;8163;50.118;5.342;2022-09-21T11:01:56;2.83;;;1.38;;
16117;SDS011;8163;50.118;5.342;2022-09-21T11:04:30;2.00;;;1.40;;
16117;SDS011;8163;50.118;5.342;2022-09-21T11:07:14;1.67;;;1.00;;
16117;SDS011;8163;50.118;5.342;2022-09-21T11:09:49;3.33;;;1.20;;
16117;SDS011;8163;50.118;5.342;2022-09-21T11:12:28;2.00;;;1.17;;
16117;SDS011;8163;50.118;5.342;2022-09-21T11:15:08;1.20;;;1.10;;
16117;SDS011;8163;50.118;5.342;2022-09-21T11:17:42;1.23;;;1.05;;
16117;SDS011;8163;50.118;5.342;2022-09-21T11:20:15;3.85;;;1.30;;
16117;SDS011;8163;50.118;5.342;2022-09-21T11:22:54;2.47;;;1.30;;
16117;SDS011;8163;50.118;5.342;2022-09-21T11:25:30;2.10;;;1.20;;
16117;SDS011;8163;50.118;5.342;2022-09-21T11:28:04;2.00;;;1.13;;
16117;SDS011;8163;50.118;5.342;2022-09-21T11:30:45;2.80;;;1.10;;
16117;SDS011;8163;50.118;5.342;2022-09-21T11:33:30;2.08;;;1.00;;
16117;SDS011;8163;50.118;5.342;2022-09-21T11:36:10;3.45;;;1.58;;
16117;SDS011;8163;50.118;5.342;2022-09-21T11:38:47;1.65;;;1.10;;
16117;SDS011;8163;50.118;5.342;2022-09-21T11:41:29;5.60;;;1.90;;
16117;SDS011;8163;50.118;5.342;2022-09-21T11:44:12;4.03;;;1.52;;
16117;SDS011;8163;50.118;5.342;2022-09-21T11:47:01;3.42;;;1.30;;
16117;SDS011;8163;50.118;5.342;2022-09-21T11:49:39;5.60;;;1.30;;
16117;SDS011;8163;50.118;5.342;2022-09-21T11:52:25;6.07;;;1.30;;
16117;SDS011;8163;50.118;5.342;2022-09-21T11:57:56;5.45;;;2.00;;
16117;SDS011;8163;50.118;5.342;2022-09-21T12:00:29;4.57;;;1.50;;
16117;SDS011;8163;50.118;5.342;2022-09-21T12:06:14;2.60;;;1.33;;
16117;SDS011;8163;50.118;5.342;2022-09-21T12:12:01;4.25;;;2.38;;
16117;SDS011;8163;50.118;5.342;2022-09-21T12:14:35;5.15;;;2.53;;
16117;SDS011;8163;50.118;5.342;2022-09-21T12:17:11;1.73;;;1.60;;
16117;SDS011;8163;50.118;5.342;2022-09-21T12:19:47;2.90;;;1.38;;
16117;SDS011;8163;50.118;5.342;2022-09-21T12:22:24;2.22;;;1.27;;
16117;SDS011;8163;50.118;5.342;2022-09-21T12:24:54;3.08;;;1.60;;
16117;SDS011;8163;50.118;5.342;2022-09-21T12:27:27;4.85;;;1.50;;
16117;SDS011;8163;50.118;5.342;2022-09-21T12:29:58;3.22;;;1.27;;
16117;SDS011;8163;50.118;5.342;2022-09-21T12:32:38;2.75;;;1.60;;
16117;SDS011;8163;50.118;5.342;2022-09-21T12:35:16;1.98;;;1.75;;
16117;SDS011;8163;50.118;5.342;2022-09-21T12:37:50;2.70;;;1.63;;
16117;SDS011;8163;50.118;5.342;2022-09-21T12:40:23;2.10;;;1.10;;
16117;SDS011;8163;50.118;5.342;2022-09-21T12:42:57;3.78;;;1.33;;
16117;SDS011;8163;50.118;5.342;2022-09-21T12:45:31;4.13;;;1.50;;
16117;SDS011;8163;50.118;5.342;2022-09-21T12:48:04;1.77;;;1.20;;
16117;SDS011;8163;50.118;5.342;2022-09-21T12:50:36;4.28;;;1.25;;
16117;SDS011;8163;50.118;5.342;2022-09-21T12:53:07;2.80;;;1.20;;
16117;SDS011;8163;50.118;5.342;2022-09-21T12:55:41;3.10;;;1.70;;
16117;SDS011;8163;50.118;5.342;2022-09-21T12:58:18;5.75;;;2.47;;
16117;SDS011;8163;50.118;5.342;2022-09-21T13:00:57;2.47;;;1.02;;
16117;SDS011;8163;50.118;5.342;2022-09-21T13:03:32;3.28;;;1.58;;
16117;SDS011;8163;50.118;5.342;2022-09-21T13:06:14;3.63;;;1.30;;
16117;SDS011;8163;50.118;5.342;2022-09-21T13:09:01;6.15;;;1.50;;
16117;SDS011;8163;50.118;5.342;2022-09-21T13:11:29;3.53;;;1.20;;
16117;SDS011;8163;50.118;5.342;2022-09-21T13:13:57;2.95;;;1.35;;
16117;SDS011;8163;50.118;5.342;2022-09-21T13:16:28;2.10;;;1.20;;
16117;SDS011;8163;50.118;5.342;2022-09-21T13:18:57;4.93;;;1.50;;
16117;SDS011;8163;50.118;5.342;2022-09-21T13:21:28;4.07;;;1.30;;
16117;SDS011;8163;50.118;5.342;2022-09-21T13:23:57;2.70;;;1.27;;
16117;SDS011;8163;50.118;5.342;2022-09-21T13:26:33;3.08;;;1.10;;
16117;SDS011;8163;50.118;5.342;2022-09-21T13:31:54;2.22;;;1.00;;
16117;SDS011;8163;50.118;5.342;2022-09-21T13:34:26;1.58;;;1.17;;
16117;SDS011;8163;50.118;5.342;2022-09-21T13:43:18;2.92;;;1.08;;
16117;SDS011;8163;50.118;5.342;2022-09-21T13:45:50;1.58;;;1.23;;
16117;SDS011;8163;50.118;5.342;2022-09-21T13:48:20;1.77;;;1.08;;
16117;SDS011;8163;50.118;5.342;2022-09-21T13:50:54;3.38;;;1.38;;
16117;SDS011;8163;50.118;5.342;2022-09-21T13:53:24;2.20;;;1.20;;
16117;SDS011;8163;50.118;5.342;2022-09-21T13:55:59;2.28;;;1.20;;
16117;SDS011;8163;50.118;5.342;2022-09-21T13:58:34;3.42;;;1.35;;
16117;SDS011;8163;50.118;5.342;2022-09-21T14:01:12;4.07;;;1.20;;
16117;SDS011;8163;50.118;5.342;2022-09-21T14:03:43;2.35;;;1.20;;
16117;SDS011;8163;50.118;5.342;2022-09-21T14:06:14;5.15;;;0.93;;
16117;SDS011;8163;50.118;5.342;2022-09-21T14:08:48;4.18;;;0.93;;
16117;SDS011;8163;50.118;5.342;2022-09-21T14:11:20;2.97;;;0.90;;
16117;SDS011;8163;50.118;5.342;2022-09-21T14:14:02;3.30;;;1.23;;
16117;SDS011;8163;50.118;5.342;2022-09-21T14:16:49;1.40;;;1.10;;
16117;SDS011;8163;50.118;5.342;2022-09-21T14:22:34;1.60;;;0.90;;
16117;SDS011;8163;50.118;5.342;2022-09-21T14:28:11;2.33;;;0.98;;
16117;SDS011;8163;50.118;5.342;2022-09-21T14:30:46;2.22;;;0.95;;
16117;SDS011;8163;50.118;5.342;2022-09-21T14:33:27;2.88;;;1.02;;
16117;SDS011;8163;50.118;5.342;2022-09-21T14:35:59;2.05;;;1.02;;
16117;SDS011;8163;50.118;5.342;2022-09-21T14:38:34;1.95;;;1.25;;
16117;SDS011;8163;50.118;5.342;2022-09-21T14:41:07;2.30;;;1.17;;
16117;SDS011;8163;50.118;5.342;2022-09-21T14:43:40;4.35;;;1.08;;
16117;SDS011;8163;50.118;5.342;2022-09-21T14:46:23;3.90;;;1.08;;
16117;SDS011;8163;50.118;5.342;2022-09-21T14:49:09;2.55;;;1.25;;
16117;SDS011;8163;50.118;5.342;2022-09-21T14:51:48;1.90;;;0.90;;
16117;SDS011;8163;50.118;5.342;2022-09-21T14:54:23;2.20;;;1.00;;
16117;SDS011;8163;50.118;5.342;2022-09-21T14:57:04;1.50;;;0.88;;
16117;SDS011;8163;50.118;5.342;2022-09-21T15:37:13;3.45;;;1.30;;
16117;SDS011;8163;50.118;5.342;2022-09-21T15:39:43;3.58;;;1.52;;
16117;SDS011;8163;50.118;5.342;2022-09-21T15:42:17;2.75;;;1.33;;
16117;SDS011;8163;50.118;5.342;2022-09-21T15:44:47;2.00;;;0.98;;
16117;SDS011;8163;50.118;5.342;2022-09-21T15:47:16;2.70;;;1.08;;
16117;SDS011;8163;50.118;5.342;2022-09-21T15:49:45;2.67;;;1.15;;
16117;SDS011;8163;50.118;5.342;2022-09-21T15:52:24;2.80;;;1.38;;
16117;SDS011;8163;50.118;5.342;2022-09-21T15:54:56;2.17;;;1.00;;
16117;SDS011;8163;50.118;5.342;2022-09-21T15:57:29;2.33;;;1.35;;
16117;SDS011;8163;50.118;5.342;2022-09-21T16:00:01;1.30;;;1.20;;
16117;SDS011;8163;50.118;5.342;2022-09-21T16:02:33;2.08;;;1.10;;
16117;SDS011;8163;50.118;5.342;2022-09-21T16:05:02;2.75;;;1.42;;
16117;SDS011;8163;50.118;5.342;2022-09-21T16:07:35;2.90;;;1.17;;
16117;SDS011;8163;50.118;5.342;2022-09-21T16:13:01;1.83;;;1.30;;
16117;SDS011;8163;50.118;5.342;2022-09-21T16:15:58;2.85;;;1.25;;
16117;SDS011;8163;50.118;5.342;2022-09-21T16:18:28;1.40;;;1.30;;
16117;SDS011;8163;50.118;5.342;2022-09-21T16:21:13;4.18;;;1.40;;
16117;SDS011;8163;50.118;5.342;2022-09-21T16:23:46;5.28;;;1.45;;
16117;SDS011;8163;50.118;5.342;2022-09-21T16:26:18;5.47;;;1.63;;
16117;SDS011;8163;50.118;5.342;2022-09-21T16:28:54;1.80;;;1.30;;
16117;SDS011;8163;50.118;5.342;2022-09-21T16:31:28;3.03;;;1.48;;
16117;SDS011;8163;50.118;5.342;2022-09-21T16:34:00;3.85;;;1.52;;
16117;SDS011;8163;50.118;5.342;2022-09-21T16:36:41;2.97;;;1.50;;
16117;SDS011;8163;50.118;5.342;2022-09-21T16:39:14;4.07;;;1.50;;
16117;SDS011;8163;50.118;5.342;2022-09-21T16:41:53;3.38;;;1.52;;
16117;SDS011;8163;50.118;5.342;2022-09-21T16:44:25;2.25;;;1.40;;